Time;durP1;ratioP1;P1;durP2;ratioP2;P2;SDS_P1;SDS_P2;PMS_P1;PMS_P2;Temp;Humidity;BMP_temperature;BMP_pressure;BME280_temperature;BME280_humidity;BME280_pressure;Samples;Min_cycle;Max_cycle;Signal;HPM_P1;HPM_P2
2023/08/03 00:00:32;;;;;;;9.48;7.10;;;;;;;;;;6275179;22;20011;-80
2023/08/03 00:02:58;;;;;;;8.77;6.95;;;;;;;;;;6222426;22;20477;-81
2023/08/03 00:05:23;;;;;;;9.98;7.63;;;;;;;;;;6278392;22;19995;-82
2023/08/03 00:07:49;;;;;;;9.57;7.20;;;;;;;;;;6249789;22;20022;-82
2023/08/03 00:10:16;;;;;;;7.90;6.78;;;;;;;;;;6255367;22;20334;-80
2023/08/03 00:12:41;;;;;;;10.25;7.50;;;;;;;;;;6254012;22;20004;-81
2023/08/03 00:15:07;;;;;;;12.88;7.18;;;;;;;;;;6250005;22;20011;-81
2023/08/03 00:17:33;;;;;;;9.30;7.47;;;;;;;;;;6223938;22;20003;-81
2023/08/03 00:20:00;;;;;;;9.32;7.60;;;;;;;;;;6249891;22;20003;-81
2023/08/03 00:22:26;;;;;;;9.20;7.88;;;;;;;;;;6249863;22;20020;-81
2023/08/03 00:24:51;;;;;;;10.55;7.63;;;;;;;;;;6276031;22;20110;-83
2023/08/03 00:27:17;;;;;;;8.80;7.50;;;;;;;;;;6249100;22;20000;-81
2023/08/03 00:29:42;;;;;;;8.60;7.70;;;;;;;;;;6198898;22;20609;-81
2023/08/03 00:32:08;;;;;;;9.27;7.60;;;;;;;;;;6249625;22;19999;-81
2023/08/03 00:34:33;;;;;;;10.02;7.88;;;;;;;;;;6289027;22;20010;-82
2023/08/03 00:36:59;;;;;;;9.07;7.13;;;;;;;;;;6249766;22;20026;-81
2023/08/03 00:39:24;;;;;;;14.18;8.00;;;;;;;;;;6249524;22;20046;-82
2023/08/03 00:41:51;;;;;;;9.98;7.80;;;;;;;;;;6249061;22;20087;-81
2023/08/03 00:44:16;;;;;;;10.23;7.65;;;;;;;;;;6276149;22;20445;-81
2023/08/03 00:46:41;;;;;;;9.50;7.50;;;;;;;;;;6249422;22;20003;-81
2023/08/03 00:49:07;;;;;;;11.55;7.38;;;;;;;;;;6248992;22;20000;-80
2023/08/03 00:51:32;;;;;;;9.73;7.78;;;;;;;;;;6249249;22;20018;-81
2023/08/03 00:53:58;;;;;;;10.00;8.23;;;;;;;;;;6249594;22;20037;-81
2023/08/03 00:56:23;;;;;;;10.45;7.30;;;;;;;;;;6254016;22;20006;-82
2023/08/03 00:58:49;;;;;;;9.20;8.00;;;;;;;;;;6233543;22;20118;-81
2023/08/03 01:01:16;;;;;;;12.65;8.00;;;;;;;;;;6278399;22;20003;-81
2023/08/03 01:03:41;;;;;;;10.75;7.78;;;;;;;;;;6227596;22;20012;-81
2023/08/03 01:06:06;;;;;;;11.10;8.35;;;;;;;;;;6252220;22;20098;-80
2023/08/03 01:08:32;;;;;;;12.25;8.50;;;;;;;;;;6281255;22;20035;-80
2023/08/03 01:10:57;;;;;;;11.55;8.30;;;;;;;;;;6277114;22;20004;-80
2023/08/03 01:13:23;;;;;;;13.23;8.00;;;;;;;;;;6249147;22;20008;-81
2023/08/03 01:15:48;;;;;;;9.63;8.18;;;;;;;;;;6223395;22;20061;-82
2023/08/03 01:18:14;;;;;;;10.38;7.57;;;;;;;;;;6275649;22;20079;-81
2023/08/03 01:20:40;;;;;;;9.60;7.90;;;;;;;;;;6233518;22;19996;-81
2023/08/03 01:23:05;;;;;;;9.98;8.15;;;;;;;;;;6249478;22;20000;-81
2023/08/03 01:25:32;;;;;;;10.95;8.00;;;;;;;;;;6249244;22;20004;-81
2023/08/03 01:27:57;;;;;;;10.98;7.90;;;;;;;;;;6249256;22;20004;-81
2023/08/03 01:30:22;;;;;;;11.40;7.80;;;;;;;;;;6275979;22;20022;-81
2023/08/03 01:32:48;;;;;;;16.80;8.40;;;;;;;;;;6248791;22;20446;-81
2023/08/03 01:35:14;;;;;;;11.27;7.95;;;;;;;;;;6248618;22;20003;-81
2023/08/03 01:37:39;;;;;;;11.18;8.43;;;;;;;;;;6223284;22;20007;-81
2023/08/03 01:40:05;;;;;;;10.02;8.10;;;;;;;;;;6223328;22;20003;-81
2023/08/03 01:42:30;;;;;;;12.10;8.15;;;;;;;;;;6280336;22;20004;-81
2023/08/03 01:44:56;;;;;;;12.63;7.53;;;;;;;;;;6204003;22;20004;-81
2023/08/03 01:47:21;;;;;;;10.32;8.10;;;;;;;;;;6248619;22;20076;-82
2023/08/03 01:49:47;;;;;;;11.75;7.10;;;;;;;;;;6275382;22;20004;-80
2023/08/03 01:52:12;;;;;;;9.60;7.57;;;;;;;;;;6275539;22;20972;-81
2023/08/03 01:54:38;;;;;;;11.40;7.80;;;;;;;;;;6275275;22;20007;-81
2023/08/03 01:57:03;;;;;;;8.75;6.93;;;;;;;;;;6248870;22;20064;-81
2023/08/03 01:59:29;;;;;;;13.73;7.55;;;;;;;;;;6275340;22;20390;-79
2023/08/03 02:01:54;;;;;;;9.30;7.65;;;;;;;;;;6248184;22;20010;-80
2023/08/03 02:04:20;;;;;;;8.93;7.63;;;;;;;;;;6248387;22;20004;-81
2023/08/03 02:06:47;;;;;;;9.45;7.22;;;;;;;;;;6280053;22;20004;-80
2023/08/03 02:09:12;;;;;;;9.25;6.97;;;;;;;;;;6248975;22;20028;-81
2023/08/03 02:11:38;;;;;;;9.50;7.40;;;;;;;;;;6275206;22;19999;-81
2023/08/03 02:14:03;;;;;;;10.68;7.50;;;;;;;;;;6275317;22;20004;-81
2023/08/03 02:16:29;;;;;;;12.73;7.38;;;;;;;;;;6275485;22;19996;-82
2023/08/03 02:18:54;;;;;;;10.05;7.88;;;;;;;;;;6248422;22;20004;-82
2023/08/03 02:21:19;;;;;;;11.32;7.40;;;;;;;;;;6275444;22;20006;-80
2023/08/03 02:23:45;;;;;;;11.57;7.57;;;;;;;;;;6274752;22;20000;-81
2023/08/03 02:26:10;;;;;;;11.38;7.78;;;;;;;;;;6248122;22;20061;-81
2023/08/03 02:28:36;;;;;;;11.60;7.57;;;;;;;;;;6252346;22;20003;-81
2023/08/03 02:31:01;;;;;;;9.52;7.63;;;;;;;;;;6255075;22;20000;-80
2023/08/03 02:33:27;;;;;;;11.63;8.02;;;;;;;;;;6275312;22;20007;-81
2023/08/03 02:35:52;;;;;;;9.80;8.10;;;;;;;;;;6275513;22;20061;-81
2023/08/03 02:38:18;;;;;;;9.90;6.75;;;;;;;;;;6274717;22;20427;-81
2023/08/03 02:40:43;;;;;;;10.77;6.93;;;;;;;;;;6248226;22;20031;-81
2023/08/03 02:43:08;;;;;;;13.10;7.63;;;;;;;;;;6275502;22;20030;-81
2023/08/03 02:45:34;;;;;;;12.85;7.55;;;;;;;;;;6274832;22;20000;-81
2023/08/03 02:47:59;;;;;;;10.15;7.85;;;;;;;;;;6248297;22;20362;-81
2023/08/03 02:50:25;;;;;;;10.55;8.43;;;;;;;;;;6248305;22;20002;-81
2023/08/03 02:52:50;;;;;;;11.05;7.78;;;;;;;;;;6278503;22;20007;-80
2023/08/03 02:55:16;;;;;;;13.20;7.55;;;;;;;;;;6230572;22;20346;-81
2023/08/03 02:57:42;;;;;;;12.32;8.38;;;;;;;;;;6247868;22;20082;-81
2023/08/03 03:00:08;;;;;;;10.57;8.15;;;;;;;;;;6223114;22;20409;-81
2023/08/03 03:02:34;;;;;;;10.55;8.73;;;;;;;;;;6274772;22;20000;-82
2023/08/03 03:04:59;;;;;;;10.60;8.30;;;;;;;;;;6275420;22;20054;-81
2023/08/03 03:07:24;;;;;;;10.38;8.48;;;;;;;;;;6274743;22;20023;-80
2023/08/03 03:09:50;;;;;;;12.45;8.13;;;;;;;;;;6275033;22;20007;-81
2023/08/03 03:12:15;;;;;;;12.38;8.57;;;;;;;;;;6248348;22;20049;-81
2023/08/03 03:14:41;;;;;;;11.25;8.48;;;;;;;;;;6252788;22;20082;-80
2023/08/03 03:17:06;;;;;;;11.70;9.32;;;;;;;;;;6278990;22;20469;-81
2023/08/03 03:19:31;;;;;;;13.30;8.95;;;;;;;;;;6275011;22;20007;-81
2023/08/03 03:21:58;;;;;;;12.18;9.35;;;;;;;;;;6247900;22;20004;-80
2023/08/03 03:24:24;;;;;;;10.95;8.23;;;;;;;;;;6274674;22;20320;-81
2023/08/03 03:26:50;;;;;;;12.65;8.68;;;;;;;;;;6275004;22;20074;-81
2023/08/03 03:29:15;;;;;;;12.55;8.38;;;;;;;;;;6275062;22;20019;-81
2023/08/03 03:31:40;;;;;;;12.88;8.38;;;;;;;;;;6247870;22;20004;-80
2023/08/03 03:34:06;;;;;;;11.35;8.35;;;;;;;;;;6222333;22;20133;-80
2023/08/03 03:36:31;;;;;;;11.65;8.88;;;;;;;;;;6274792;22;20074;-81
2023/08/03 03:38:57;;;;;;;10.88;8.35;;;;;;;;;;6278182;22;20343;-81
2023/08/03 03:41:22;;;;;;;11.73;8.38;;;;;;;;;;6258552;22;20014;-81
2023/08/03 03:43:48;;;;;;;9.80;8.18;;;;;;;;;;6277281;22;20004;-82
2023/08/03 03:46:13;;;;;;;12.40;8.30;;;;;;;;;;6277285;22;19996;-81
2023/08/03 03:48:39;;;;;;;12.20;8.30;;;;;;;;;;6277050;22;20010;-80
2023/08/03 03:51:05;;;;;;;15.80;7.72;;;;;;;;;;6276542;22;20011;-80
2023/08/03 03:53:30;;;;;;;11.75;7.78;;;;;;;;;;6249506;22;20296;-81
2023/08/03 03:55:56;;;;;;;15.30;8.10;;;;;;;;;;6277630;22;20015;-80
2023/08/03 03:58:21;;;;;;;12.20;8.13;;;;;;;;;;6276714;22;20008;-81
2023/08/03 04:00:46;;;;;;;13.35;9.10;;;;;;;;;;6277772;22;20062;-80
2023/08/03 04:03:12;;;;;;;13.55;8.82;;;;;;;;;;6251404;22;20007;-81
2023/08/03 04:05:38;;;;;;;16.90;9.75;;;;;;;;;;6249263;22;20003;-81
2023/08/03 04:08:03;;;;;;;15.88;9.95;;;;;;;;;;6224484;22;20007;-82
2023/08/03 04:10:30;;;;;;;16.98;9.30;;;;;;;;;;6276742;22;20003;-81
2023/08/03 04:12:56;;;;;;;15.77;10.05;;;;;;;;;;6276696;22;19999;-81
2023/08/03 04:15:21;;;;;;;14.50;9.57;;;;;;;;;;6249238;22;20041;-81
2023/08/03 04:17:48;;;;;;;13.82;9.68;;;;;;;;;;6249334;22;20003;-81
2023/08/03 04:20:14;;;;;;;14.27;10.00;;;;;;;;;;6276080;22;20423;-81
2023/08/03 04:22:40;;;;;;;17.98;10.25;;;;;;;;;;6249362;22;19999;-81
2023/08/03 04:25:06;;;;;;;15.88;10.10;;;;;;;;;;6283988;22;20065;-80
2023/08/03 04:27:31;;;;;;;16.30;9.55;;;;;;;;;;6278352;22;20004;-81
2023/08/03 04:29:57;;;;;;;15.38;9.98;;;;;;;;;;6276775;22;20007;-81
2023/08/03 04:32:22;;;;;;;14.77;9.68;;;;;;;;;;6276579;22;19995;-83
2023/08/03 04:34:47;;;;;;;13.93;10.25;;;;;;;;;;6275957;22;20011;-81
2023/08/03 04:37:13;;;;;;;15.00;10.45;;;;;;;;;;6276163;22;20031;-82
2023/08/03 04:39:38;;;;;;;13.93;9.57;;;;;;;;;;6249570;22;20004;-81
2023/08/03 04:42:04;;;;;;;18.00;10.32;;;;;;;;;;6276592;22;19999;-81
2023/08/03 04:44:29;;;;;;;15.15;10.23;;;;;;;;;;6249370;22;20363;-81
2023/08/03 04:46:55;;;;;;;14.70;9.25;;;;;;;;;;6250578;22;20061;-81
2023/08/03 04:49:22;;;;;;;16.67;10.18;;;;;;;;;;6280164;22;20007;-81
2023/08/03 04:51:49;;;;;;;17.80;9.68;;;;;;;;;;6276213;22;20004;-81
2023/08/03 04:54:15;;;;;;;17.02;10.13;;;;;;;;;;6249669;22;20003;-80
2023/08/03 04:56:40;;;;;;;17.88;10.93;;;;;;;;;;6249338;22;20183;-81
2023/08/03 04:59:06;;;;;;;19.55;10.05;;;;;;;;;;6249260;22;20007;-81
2023/08/03 05:01:31;;;;;;;13.60;10.18;;;;;;;;;;6276364;22;20004;-80
2023/08/03 05:03:58;;;;;;;14.82;10.00;;;;;;;;;;6249631;22;20399;-80
2023/08/03 05:06:23;;;;;;;22.95;10.32;;;;;;;;;;6275902;22;20042;-80
2023/08/03 05:08:50;;;;;;;18.98;11.95;;;;;;;;;;6276140;22;20419;-80
2023/08/03 05:11:16;;;;;;;21.08;11.55;;;;;;;;;;6287242;22;20441;-81
2023/08/03 05:13:41;;;;;;;26.73;13.23;;;;;;;;;;6276242;22;20427;-80
2023/08/03 05:16:06;;;;;;;24.88;12.90;;;;;;;;;;6275869;22;19996;-81
2023/08/03 05:18:32;;;;;;;20.42;12.15;;;;;;;;;;6275845;22;19995;-81
2023/08/03 05:20:57;;;;;;;18.73;11.68;;;;;;;;;;6275700;22;20006;-80
2023/08/03 05:23:23;;;;;;;17.67;11.10;;;;;;;;;;6276078;22;20090;-81
2023/08/03 05:25:55;;;;;;;13.88;10.07;;;;;;;;;;6248771;22;20018;-81
2023/08/03 05:28:22;;;;;;;14.15;9.23;;;;;;;;;;6276055;22;20010;-80
2023/08/03 05:30:48;;;;;;;17.33;10.25;;;;;;;;;;6248294;22;20284;-80
2023/08/03 05:33:14;;;;;;;14.90;9.73;;;;;;;;;;6275513;22;20004;-81
2023/08/03 05:35:40;;;;;;;11.98;9.57;;;;;;;;;;6251230;22;20008;-81
2023/08/03 05:38:05;;;;;;;14.20;8.75;;;;;;;;;;6276287;22;20006;-81
2023/08/03 05:40:31;;;;;;;13.48;9.38;;;;;;;;;;6276258;22;20388;-81
2023/08/03 05:42:56;;;;;;;10.75;9.18;;;;;;;;;;6275545;22;20007;-81
2023/08/03 05:45:34;;;;;;;17.75;9.13;;;;;;;;;;6275669;22;20014;-81
2023/08/03 05:48:00;;;;;;;13.45;9.13;;;;;;;;;;6275357;22;20015;-79
2023/08/03 05:50:25;;;;;;;15.95;9.27;;;;;;;;;;6198110;22;20004;-81
2023/08/03 05:52:51;;;;;;;12.93;8.73;;;;;;;;;;6249102;22;20445;-81
2023/08/03 05:55:17;;;;;;;11.63;9.00;;;;;;;;;;6248778;22;20008;-82
2023/08/03 05:57:42;;;;;;;10.45;8.63;;;;;;;;;;6234537;22;20478;-80
2023/08/03 06:00:19;;;;;;;17.83;9.15;;;;;;;;;;6223295;22;20000;-80
2023/08/03 06:02:45;;;;;;;12.02;8.93;;;;;;;;;;6275665;22;20004;-80
2023/08/03 06:05:38;;;;;;;12.63;8.70;;;;;;;;;;6275737;22;20320;-81
2023/08/03 06:08:16;;;;;;;10.88;8.70;;;;;;;;;;6275968;22;20007;-80
2023/08/03 06:10:52;;;;;;;14.80;9.23;;;;;;;;;;6248594;22;20007;-80
2023/08/03 06:13:39;;;;;;;13.50;9.50;;;;;;;;;;6275662;22;20018;-81
2023/08/03 06:16:09;;;;;;;15.85;9.10;;;;;;;;;;6275437;22;19996;-80
2023/08/03 06:18:48;;;;;;;14.60;9.38;;;;;;;;;;6275254;22;20004;-83
2023/08/03 06:21:14;;;;;;;12.55;9.40;;;;;;;;;;6224809;22;20000;-83
2023/08/03 06:23:40;;;;;;;14.77;9.50;;;;;;;;;;6249270;22;20011;-80
2023/08/03 06:26:06;;;;;;;12.48;10.45;;;;;;;;;;6276039;22;20347;-81
2023/08/03 06:28:32;;;;;;;14.70;9.93;;;;;;;;;;6222437;22;20355;-80
2023/08/03 06:30:57;;;;;;;11.35;9.48;;;;;;;;;;6248457;22;20004;-81
2023/08/03 06:33:23;;;;;;;11.13;9.90;;;;;;;;;;6275377;22;20004;-81
2023/08/03 06:35:51;;;;;;;12.93;10.10;;;;;;;;;;6248326;22;20089;-81
2023/08/03 06:38:21;;;;;;;13.63;9.48;;;;;;;;;;6223328;22;19995;-81
2023/08/03 06:40:47;;;;;;;16.55;9.57;;;;;;;;;;6249413;22;20394;-81
2023/08/03 06:43:13;;;;;;;12.57;10.23;;;;;;;;;;6259332;22;20003;-80
2023/08/03 06:45:39;;;;;;;13.95;10.65;;;;;;;;;;6269023;22;20341;-81
2023/08/03 06:48:04;;;;;;;11.38;10.15;;;;;;;;;;6232009;22;20030;-81
2023/08/03 06:50:30;;;;;;;15.20;10.90;;;;;;;;;;6249046;22;20426;-81
2023/08/03 06:52:56;;;;;;;14.02;10.60;;;;;;;;;;6275767;22;20014;-81
2023/08/03 06:55:21;;;;;;;18.15;11.23;;;;;;;;;;6275908;22;20010;-81
2023/08/03 06:57:47;;;;;;;14.85;11.55;;;;;;;;;;6198106;22;20015;-81
2023/08/03 07:00:30;;;;;;;14.43;11.75;;;;;;;;;;6275308;22;20423;-82
2023/08/03 07:02:59;;;;;;;14.82;11.43;;;;;;;;;;6274923;22;20086;-81
2023/08/03 07:05:24;;;;;;;16.70;10.90;;;;;;;;;;6198050;22;20034;-81
2023/08/03 07:07:49;;;;;;;16.63;11.15;;;;;;;;;;6275951;22;20422;-82
2023/08/03 07:10:34;;;;;;;14.90;11.75;;;;;;;;;;6275823;22;20010;-81
2023/08/03 07:12:59;;;;;;;13.00;10.38;;;;;;;;;;6228980;22;20015;-81
2023/08/03 07:15:24;;;;;;;20.35;11.73;;;;;;;;;;6274717;22;20008;-82
2023/08/03 07:17:50;;;;;;;19.80;11.57;;;;;;;;;;6275531;22;20010;-82
2023/08/03 07:20:17;;;;;;;17.15;11.07;;;;;;;;;;6275073;22;20008;-82
2023/08/03 07:22:45;;;;;;;13.82;10.82;;;;;;;;;;6276016;22;20056;-81
2023/08/03 07:25:10;;;;;;;16.38;11.63;;;;;;;;;;6249060;22;20454;-83
2023/08/03 07:27:36;;;;;;;17.33;10.77;;;;;;;;;;6250103;22;20004;-82
2023/08/03 07:30:09;;;;;;;22.52;12.23;;;;;;;;;;6251431;22;19999;-82
2023/08/03 07:32:35;;;;;;;18.63;11.32;;;;;;;;;;6249788;22;20091;-82
2023/08/03 07:35:00;;;;;;;15.90;12.00;;;;;;;;;;6299707;22;20008;-83
2023/08/03 07:37:26;;;;;;;16.70;12.10;;;;;;;;;;6302108;22;20036;-83
2023/08/03 07:39:51;;;;;;;15.90;11.68;;;;;;;;;;6299617;22;20004;-82
2023/08/03 07:42:17;;;;;;;15.35;12.18;;;;;;;;;;6243056;22;20007;-82
2023/08/03 07:44:42;;;;;;;14.57;11.90;;;;;;;;;;6275227;22;20395;-82
2023/08/03 07:47:07;;;;;;;14.25;11.18;;;;;;;;;;6275725;22;20000;-82
2023/08/03 07:49:33;;;;;;;27.15;11.35;;;;;;;;;;6247618;22;20004;-81
2023/08/03 07:51:58;;;;;;;13.27;8.98;;;;;;;;;;6275075;22;20051;-82
2023/08/03 07:54:24;;;;;;;10.38;8.43;;;;;;;;;;6277462;22;20011;-81
2023/08/03 07:56:50;;;;;;;15.43;8.43;;;;;;;;;;6274720;22;20003;-82
2023/08/03 07:59:15;;;;;;;12.95;8.88;;;;;;;;;;6248101;22;20058;-82
2023/08/03 08:01:43;;;;;;;77.93;12.98;;;;;;;;;;6274509;22;20144;-84
2023/08/03 08:04:09;;;;;;;19.25;8.95;;;;;;;;;;6274720;22;19999;-83
2023/08/03 08:06:35;;;;;;;11.57;8.95;;;;;;;;;;6274626;22;20006;-82
2023/08/03 08:09:00;;;;;;;10.57;8.23;;;;;;;;;;6275224;22;20045;-83
2023/08/03 08:11:25;;;;;;;13.40;8.75;;;;;;;;;;6247350;22;20008;-82
2023/08/03 08:13:51;;;;;;;15.15;10.05;;;;;;;;;;6274333;22;20011;-83
2023/08/03 08:16:16;;;;;;;14.73;11.20;;;;;;;;;;6275993;22;20062;-82
2023/08/03 08:18:42;;;;;;;14.48;10.13;;;;;;;;;;6274601;22;20007;-83
2023/08/03 08:21:09;;;;;;;15.10;10.20;;;;;;;;;;6247426;22;19999;-82
2023/08/03 08:23:35;;;;;;;15.90;10.75;;;;;;;;;;6274404;22;20031;-82
2023/08/03 08:26:00;;;;;;;15.80;11.23;;;;;;;;;;6222599;22;20506;-82
2023/08/03 08:28:26;;;;;;;17.15;12.00;;;;;;;;;;6224373;22;20031;-82
2023/08/03 08:30:52;;;;;;;17.75;12.20;;;;;;;;;;6249907;22;20007;-82
2023/08/03 08:33:18;;;;;;;13.48;11.55;;;;;;;;;;6276591;22;20389;-82
2023/08/03 08:35:44;;;;;;;21.05;11.05;;;;;;;;;;6249776;22;20442;-81
2023/08/03 08:38:10;;;;;;;17.38;11.15;;;;;;;;;;6253321;22;20004;-81
2023/08/03 08:40:36;;;;;;;14.32;10.73;;;;;;;;;;6249605;22;20405;-82
2023/08/03 08:43:02;;;;;;;15.50;11.00;;;;;;;;;;6276224;22;20075;-82
2023/08/03 08:45:30;;;;;;;16.55;11.35;;;;;;;;;;6276099;22;20003;-82
2023/08/03 08:47:55;;;;;;;16.87;10.97;;;;;;;;;;6276009;22;20624;-82
2023/08/03 08:50:21;;;;;;;18.35;10.43;;;;;;;;;;6275902;22;20238;-82
2023/08/03 08:52:46;;;;;;;17.48;10.90;;;;;;;;;;6276036;22;20004;-81
2023/08/03 08:55:20;;;;;;;13.90;10.73;;;;;;;;;;6248947;22;20050;-82
2023/08/03 08:57:45;;;;;;;15.40;10.75;;;;;;;;;;6223858;22;20438;-82
2023/08/03 09:00:11;;;;;;;17.42;10.63;;;;;;;;;;6282651;22;20040;-82
2023/08/03 09:02:37;;;;;;;14.23;10.55;;;;;;;;;;6276349;22;20066;-83
2023/08/03 09:05:19;;;;;;;15.65;9.48;;;;;;;;;;6249282;22;20061;-82
2023/08/03 09:07:44;;;;;;;14.23;11.05;;;;;;;;;;6276112;22;20121;-81
2023/08/03 09:10:10;;;;;;;19.45;11.65;;;;;;;;;;6275856;22;20038;-82
2023/08/03 09:12:38;;;;;;;16.35;11.00;;;;;;;;;;6276030;22;19999;-83
2023/08/03 09:15:04;;;;;;;18.63;11.13;;;;;;;;;;6225030;22;20007;-81
2023/08/03 09:17:29;;;;;;;16.90;10.95;;;;;;;;;;6249536;22;20070;-81
2023/08/03 09:19:55;;;;;;;16.05;11.10;;;;;;;;;;6276130;22;20061;-81
2023/08/03 09:22:24;;;;;;;16.35;11.13;;;;;;;;;;6276306;22;20075;-81
2023/08/03 09:25:06;;;;;;;16.73;11.32;;;;;;;;;;6279677;22;20427;-81
2023/08/03 09:27:32;;;;;;;17.02;10.98;;;;;;;;;;6249117;22;20007;-82
2023/08/03 09:30:03;;;;;;;20.10;11.30;;;;;;;;;;6249207;22;20411;-79
2023/08/03 09:32:34;;;;;;;20.85;10.75;;;;;;;;;;6250214;22;20330;-81
2023/08/03 09:34:59;;;;;;;16.38;10.90;;;;;;;;;;6275832;22;20004;-81
2023/08/03 09:37:35;;;;;;;16.58;11.07;;;;;;;;;;6247926;22;20018;-82
2023/08/03 09:40:04;;;;;;;23.45;11.57;;;;;;;;;;6275289;22;20330;-82
2023/08/03 09:42:32;;;;;;;15.48;10.68;;;;;;;;;;6249407;22;20000;-83
2023/08/03 09:45:01;;;;;;;20.80;11.80;;;;;;;;;;6223315;22;20430;-82
2023/08/03 09:47:27;;;;;;;13.27;10.82;;;;;;;;;;6249445;22;20458;-82
2023/08/03 09:49:53;;;;;;;14.40;10.32;;;;;;;;;;6275897;22;20030;-84
2023/08/03 09:52:21;;;;;;;16.60;10.63;;;;;;;;;;6274930;22;20453;-82
2023/08/03 09:55:05;;;;;;;16.83;11.30;;;;;;;;;;6248417;22;20390;-82
2023/08/03 09:57:43;;;;;;;17.52;10.68;;;;;;;;;;6250516;22;20004;-82
2023/08/03 10:00:11;;;;;;;19.02;9.90;;;;;;;;;;6248331;22;20399;-83
2023/08/03 10:02:44;;;;;;;14.20;10.00;;;;;;;;;;6275145;22;19996;-82
2023/08/03 10:05:11;;;;;;;16.80;10.30;;;;;;;;;;6248708;22;20010;-82
2023/08/03 10:07:45;;;;;;;15.10;10.30;;;;;;;;;;6223032;22;20364;-82
2023/08/03 10:10:11;;;;;;;13.07;9.68;;;;;;;;;;6281248;22;20003;-83
2023/08/03 10:12:43;;;;;;;17.45;10.63;;;;;;;;;;6249312;22;20030;-82
2023/08/03 10:15:09;;;;;;;16.50;10.55;;;;;;;;;;6275246;22;20065;-82
2023/08/03 10:17:35;;;;;;;18.50;10.02;;;;;;;;;;6275834;22;20011;-83
2023/08/03 10:20:00;;;;;;;21.52;10.63;;;;;;;;;;6248620;22;20079;-83
2023/08/03 10:22:26;;;;;;;20.23;10.55;;;;;;;;;;6222712;22;20007;-82
2023/08/03 10:25:14;;;;;;;13.65;9.93;;;;;;;;;;6248786;22;20042;-82
2023/08/03 10:27:39;;;;;;;14.70;9.82;;;;;;;;;;6248328;22;20419;-81
2023/08/03 10:30:06;;;;;;;16.55;10.73;;;;;;;;;;6275139;22;19999;-81
2023/08/03 10:32:31;;;;;;;15.60;10.23;;;;;;;;;;6249931;22;20004;-81
2023/08/03 10:35:19;;;;;;;13.60;10.70;;;;;;;;;;6277292;22;20421;-81
2023/08/03 10:37:45;;;;;;;14.88;10.27;;;;;;;;;;6252533;22;20058;-82
2023/08/03 10:40:21;;;;;;;18.88;10.05;;;;;;;;;;6275837;22;19999;-82
2023/08/03 10:42:46;;;;;;;14.75;10.30;;;;;;;;;;6224679;22;20090;-81
2023/08/03 10:45:21;;;;;;;20.73;10.20;;;;;;;;;;6222522;22;20007;-82
2023/08/03 10:47:46;;;;;;;16.40;9.95;;;;;;;;;;6275420;22;20004;-83
2023/08/03 10:50:12;;;;;;;14.90;10.30;;;;;;;;;;6222789;22;20484;-82
2023/08/03 10:52:37;;;;;;;15.55;10.52;;;;;;;;;;6275003;22;20091;-82
2023/08/03 10:55:22;;;;;;;23.10;11.02;;;;;;;;;;6277167;22;20026;-83
2023/08/03 10:57:47;;;;;;;16.95;10.27;;;;;;;;;;6279445;22;20075;-82
2023/08/03 11:00:13;;;;;;;15.27;10.50;;;;;;;;;;6275538;22;20050;-82
2023/08/03 11:02:42;;;;;;;16.77;11.05;;;;;;;;;;6275343;22;20004;-82
2023/08/03 11:05:10;;;;;;;20.77;11.05;;;;;;;;;;6247720;22;20015;-82
2023/08/03 11:07:36;;;;;;;19.27;10.50;;;;;;;;;;6248693;22;20004;-83
2023/08/03 11:10:04;;;;;;;16.10;10.70;;;;;;;;;;6247648;22;20079;-81
2023/08/03 11:12:29;;;;;;;16.38;10.38;;;;;;;;;;6248738;22;20082;-81
2023/08/03 11:14:55;;;;;;;14.48;10.75;;;;;;;;;;6275027;22;20058;-82
2023/08/03 11:17:28;;;;;;;22.00;10.85;;;;;;;;;;6248265;22;20004;-82
2023/08/03 11:19:54;;;;;;;20.45;11.07;;;;;;;;;;6251080;22;20427;-80
2023/08/03 11:22:21;;;;;;;20.40;11.15;;;;;;;;;;6223911;22;20064;-81
2023/08/03 11:24:48;;;;;;;16.40;10.50;;;;;;;;;;6274877;22;20022;-81
2023/08/03 11:27:13;;;;;;;14.85;10.18;;;;;;;;;;6275115;22;20003;-80
2023/08/03 11:29:39;;;;;;;18.08;10.57;;;;;;;;;;6221998;22;20003;-82
2023/08/03 11:32:05;;;;;;;14.73;10.23;;;;;;;;;;6275065;22;20011;-81
2023/08/03 11:34:31;;;;;;;14.85;9.90;;;;;;;;;;6274731;22;20432;-81
2023/08/03 11:36:56;;;;;;;18.85;10.63;;;;;;;;;;6275125;22;19999;-81
2023/08/03 11:39:22;;;;;;;22.75;10.63;;;;;;;;;;6274657;22;20465;-80
2023/08/03 11:41:48;;;;;;;16.45;10.43;;;;;;;;;;6224088;22;20003;-81
2023/08/03 11:44:14;;;;;;;17.52;10.77;;;;;;;;;;6248004;22;20015;-81
2023/08/03 11:46:39;;;;;;;20.25;10.23;;;;;;;;;;6247904;22;20000;-81
2023/08/03 11:49:05;;;;;;;17.10;10.32;;;;;;;;;;6222640;22;20335;-81
2023/08/03 11:51:36;;;;;;;18.02;10.45;;;;;;;;;;6247713;22;20035;-81
2023/08/03 11:54:05;;;;;;;21.98;11.23;;;;;;;;;;6248354;22;20031;-82
2023/08/03 11:56:32;;;;;;;18.10;11.20;;;;;;;;;;6222621;22;19999;-81
2023/08/03 11:58:57;;;;;;;16.88;10.20;;;;;;;;;;6222919;22;19995;-81
2023/08/03 12:01:26;;;;;;;20.92;11.30;;;;;;;;;;6275608;22;20056;-81
2023/08/03 12:04:03;;;;;;;28.20;11.23;;;;;;;;;;6277069;22;20319;-82
2023/08/03 12:06:47;;;;;;;20.00;11.15;;;;;;;;;;6255219;22;20007;-80
2023/08/03 12:09:26;;;;;;;19.60;10.88;;;;;;;;;;6252021;22;20053;-82
2023/08/03 12:12:07;;;;;;;26.70;11.07;;;;;;;;;;6277079;22;20342;-81
2023/08/03 12:14:33;;;;;;;20.45;11.32;;;;;;;;;;6249541;22;20007;-82
2023/08/03 12:16:59;;;;;;;18.67;11.55;;;;;;;;;;6250078;22;20003;-84
2023/08/03 12:19:29;;;;;;;21.30;11.13;;;;;;;;;;6287510;22;20011;-80
2023/08/03 12:21:55;;;;;;;18.25;11.45;;;;;;;;;;6293281;22;20004;-80
2023/08/03 12:24:20;;;;;;;21.80;10.88;;;;;;;;;;6281046;22;20003;-81
2023/08/03 12:26:45;;;;;;;19.75;11.15;;;;;;;;;;6277118;22;20023;-81
2023/08/03 12:29:11;;;;;;;18.13;11.05;;;;;;;;;;6277658;22;19999;-81
2023/08/03 12:31:37;;;;;;;18.00;10.38;;;;;;;;;;6276632;22;19999;-80
2023/08/03 12:34:02;;;;;;;18.63;11.10;;;;;;;;;;6276447;22;20342;-81
2023/08/03 12:36:27;;;;;;;14.30;9.75;;;;;;;;;;6249865;22;20010;-81
2023/08/03 12:38:53;;;;;;;18.52;10.98;;;;;;;;;;6249484;22;20370;-82
2023/08/03 12:41:19;;;;;;;19.80;11.43;;;;;;;;;;6249586;22;20031;-81
2023/08/03 12:43:46;;;;;;;21.25;11.60;;;;;;;;;;6276258;22;20007;-82
2023/08/03 12:46:11;;;;;;;25.40;11.48;;;;;;;;;;6276189;22;20079;-81
2023/08/03 12:48:37;;;;;;;19.67;11.13;;;;;;;;;;6249624;22;20004;-81
2023/08/03 12:51:02;;;;;;;20.80;11.13;;;;;;;;;;6250736;22;20007;-81
2023/08/03 12:53:28;;;;;;;19.77;10.80;;;;;;;;;;6250129;22;20393;-81
2023/08/03 12:55:53;;;;;;;16.50;10.98;;;;;;;;;;6276401;22;20008;-81
2023/08/03 12:58:19;;;;;;;16.15;10.65;;;;;;;;;;6276358;22;20478;-81
2023/08/03 13:00:45;;;;;;;19.50;11.13;;;;;;;;;;6275970;22;20415;-81
2023/08/03 13:03:10;;;;;;;17.35;11.60;;;;;;;;;;6249314;22;20007;-81
2023/08/03 13:05:36;;;;;;;15.50;10.52;;;;;;;;;;6276167;22;20416;-80
2023/08/03 13:08:01;;;;;;;19.20;10.35;;;;;;;;;;6248918;22;20003;-81
2023/08/03 13:10:27;;;;;;;23.33;11.25;;;;;;;;;;6248753;22;20000;-81
2023/08/03 13:12:52;;;;;;;17.92;10.35;;;;;;;;;;6276088;22;20007;-82
2023/08/03 13:15:17;;;;;;;16.52;10.95;;;;;;;;;;6249343;22;20011;-81
2023/08/03 13:17:43;;;;;;;16.45;11.23;;;;;;;;;;6277688;22;20007;-81
2023/08/03 13:20:10;;;;;;;23.95;10.77;;;;;;;;;;6276101;22;20346;-80
2023/08/03 13:22:36;;;;;;;22.33;10.93;;;;;;;;;;6276066;22;20074;-80
2023/08/03 13:25:02;;;;;;;20.55;11.45;;;;;;;;;;6224175;22;20008;-82
2023/08/03 13:27:28;;;;;;;26.17;11.27;;;;;;;;;;6275722;22;20457;-81
2023/08/03 13:29:53;;;;;;;19.92;10.10;;;;;;;;;;6248735;22;20010;-81
2023/08/03 13:32:19;;;;;;;18.00;10.68;;;;;;;;;;6275485;22;20000;-81
2023/08/03 13:34:45;;;;;;;16.55;10.88;;;;;;;;;;6248591;22;20054;-81
2023/08/03 13:37:10;;;;;;;17.92;10.75;;;;;;;;;;6275513;22;20010;-81
2023/08/03 13:39:36;;;;;;;17.88;10.43;;;;;;;;;;6284911;22;20031;-80
2023/08/03 13:42:01;;;;;;;23.08;10.82;;;;;;;;;;6248745;22;20003;-81
2023/08/03 13:44:27;;;;;;;17.75;10.07;;;;;;;;;;6276172;22;20003;-81
2023/08/03 13:46:52;;;;;;;19.60;11.07;;;;;;;;;;6248929;22;20000;-82
2023/08/03 13:49:18;;;;;;;17.30;10.13;;;;;;;;;;6223552;22;20098;-80
2023/08/03 13:51:45;;;;;;;16.33;11.15;;;;;;;;;;6275479;22;20008;-82
2023/08/03 13:54:10;;;;;;;16.85;10.23;;;;;;;;;;6248327;22;20007;-81
2023/08/03 13:56:35;;;;;;;16.40;10.82;;;;;;;;;;6275698;22;19996;-81
2023/08/03 13:59:01;;;;;;;19.73;9.73;;;;;;;;;;6277103;22;20008;-81
2023/08/03 14:01:26;;;;;;;16.73;11.25;;;;;;;;;;6249220;22;19999;-81
2023/08/03 14:03:54;;;;;;;18.48;11.20;;;;;;;;;;6278976;22;20067;-80
2023/08/03 14:06:20;;;;;;;22.05;11.25;;;;;;;;;;6250080;22;20394;-81
2023/08/03 14:08:46;;;;;;;19.73;10.60;;;;;;;;;;6275872;22;20070;-82
2023/08/03 14:11:12;;;;;;;17.58;10.75;;;;;;;;;;6275815;22;20449;-81
2023/08/03 14:13:37;;;;;;;18.33;10.95;;;;;;;;;;6248140;22;20000;-80
2023/08/03 14:16:09;;;;;;;16.23;10.80;;;;;;;;;;6275690;22;20337;-81
2023/08/03 14:18:35;;;;;;;16.20;10.65;;;;;;;;;;6276030;22;20000;-81
2023/08/03 14:21:00;;;;;;;19.77;11.75;;;;;;;;;;6248811;22;20003;-82